Nearby METAR Reports

 

KSJC - San Jose, California, USA
Distance from station: NE 9mi, 14km
Updated: Thu, 10/17/19 11:53pm
Few Clouds
Few Clouds
 Wind from N
Wind: N 5 mph , 7 km/h
Temperature: 57°F , 14°C
Dew Point: 50°F , 10°C
Humidity: 77%
Barometer: 30.02 inHg , 1016.6 hPa
Clouds: Few Clouds
Visibility: 10 miles , 16 km
Cloud details: Few Clouds 900 ft
2019/10/18 05:53 KSJC 180553Z 01004KT 10SM FEW009 14/10 A3002 RMK AO2 SLP165 T01390100 10194 20133 53011
KNUQ - Moffett Nas/Mtn, California, USA
Distance from station: N 9mi, 14km
Updated: Thu, 10/17/19 10:56pm

 
Barometer: 30.01 inHg , 1016.3 hPa
2019/10/18 04:56 KNUQ 180456Z A3001 RMK AO2 SLP166 PWINO $
 
KPAO - Palo Alto, California, USA
Distance from station: NNW 14mi, 23km
Updated: Thu, 10/17/19 9:47pm
NOT Current
Clear
Clear
 Wind from WNW
Wind: WNW 13 mph , 20 km/h
Temperature: 57°F , 14°C
Dew Point: 48°F , 9°C
Humidity: 72%
Barometer: 29.99 inHg , 1015.6 hPa
Clouds: Clear
Visibility: 10 miles , 16 km
2019/10/18 03:47 KPAO 180347Z 30011KT 10SM SKC 14/09 A2999 RMK LAST
KRHV - San Jose/Reid, California, USA
Distance from station: ENE 12mi, 19km
Updated: Thu, 10/17/19 10:55pm
Partly cloudy
Partly cloudy
 Wind from calm
Wind: Calm
Temperature: 57°F , 14°C
Dew Point: 52°F , 11°C
Humidity: 82%
Barometer: 30.01 inHg , 1016.3 hPa
Clouds: Partly cloudy
Visibility: 10 miles , 16 km
Cloud details: Partly cloudy 1200 ft
2019/10/18 04:55 KRHV 180455Z 00000KT 10SM SCT012 14/11 A3001 RMK LAST
 
KOAK - Oakland, California, USA
Distance from station: NNW 31mi, 50km
Updated: Thu, 10/17/19 11:53pm
Clear
Clear
 Wind from NW
Wind: NW 9 mph , 15 km/h
Temperature: 59°F , 15°C
Dew Point: 46°F , 8°C
Humidity: 63%
Barometer: 30.02 inHg , 1016.6 hPa
Clouds: Clear
Visibility: 10 miles , 16 km
2019/10/18 05:53 KOAK 180553Z 32008KT 10SM CLR 15/08 A3002 RMK AO2 SLP165 T01500083 10189 20150 53013
KSQL - San Carlos Airpo, California, USA
Distance from station: NW 21mi, 34km
Updated: Thu, 10/17/19 9:47pm
NOT Current
Clear
Clear
 Wind from W
Wind: W 10 mph , 17 km/h
Temperature: 59°F , 15°C
Dew Point: 48°F , 9°C
Humidity: 68%
Barometer: 30.00 inHg , 1015.9 hPa
Clouds: Clear
Visibility: 10 miles , 16 km
2019/10/18 03:47 KSQL 180347Z 28009KT 10SM SKC 15/09 A3000 RMK LAST
 
KSFO - San Francisco, California, USA
Distance from station: NW 30mi, 49km
Updated: Thu, 10/17/19 10:56pm
Clear
Clear
 Wind from W
Wind: W 13 mph , 20 km/h
Temperature: 57°F , 14°C
Dew Point: 48°F , 9°C
Humidity: 72%
Barometer: 30.00 inHg , 1015.9 hPa
Clouds: Clear
Visibility: 10 miles , 16 km
2019/10/18 04:56 KSFO 180456Z 27011KT 10SM CLR 14/09 A3000 RMK AO2 SLP158 T01440094
KE16 - San Martin, California, USA
Distance from station: ESE 27mi, 43km
Updated: Thu, 10/17/19 11:35pm
Partly cloudy
Partly cloudy
 Wind from N
Wind: N 10 mph , 17 km/h
Temperature: 55°F , 13°C
Dew Point: 48°F , 9°C
Humidity: 77%
Barometer: 30.02 inHg , 1016.6 hPa
Clouds: Partly cloudy
Visibility: 10 miles , 16 km
Cloud details: Few Clouds 1800 ft
Few Clouds 2600 ft
Partly cloudy 3300 ft
2019/10/18 05:35 KE16 180535Z AUTO 35009KT 10SM FEW018 FEW026 SCT033 13/09 A3002 RMK AO2
 
KWVI - Watsonville, California, USA
Distance from station: SSE 27mi, 44km
Updated: Thu, 10/17/19 11:53pm
Clear
Clear
 Wind from NE
Wind: NE 6 mph , 9 km/h
Temperature: 54°F , 12°C
Dew Point: 45°F , 7°C
Humidity: 72%
Barometer: 30.01 inHg , 1016.3 hPa
Clouds: Clear
Visibility: 10 miles , 16 km
2019/10/18 05:53 KWVI 180553Z AUTO 04005KT 10SM CLR 12/07 A3001 RMK AO2 SLP161 T01170072 10228 20100 53008
KHAF - Half Moon Bay, California, USA
Distance from station: WNW 31mi, 50km
Updated: Thu, 10/17/19 11:55pm
Haze, Clear
Haze, Clear
 Wind from N
Wind: N 13 mph , 20 km/h, Gust: 18 mph , 30 km/h
Temperature: 55°F , 13°C
Dew Point: 50°F , 10°C
Humidity: 82%
Barometer: 30.03 inHg , 1016.9 hPa
Summary: Haze
Clouds: Clear
Visibility: 5 miles , 8 km
2019/10/18 05:55 KHAF 180555Z AUTO 35011G16KT 5SM HZ CLR 13/10 A3003 RMK AO2
 
KHWD - Hayward, California, USA
Distance from station: N 28mi, 44km
Updated: Thu, 10/17/19 11:54pm
Clear
Clear
 Wind from NW
Wind: NW 7 mph , 11 km/h
Temperature: 57°F , 14°C
Dew Point: 48°F , 9°C
Humidity: 72%
Barometer: 30.01 inHg , 1016.3 hPa
Clouds: Clear
Visibility: 10 miles , 16 km
2019/10/18 05:54 KHWD 180554Z AUTO 32006KT 10SM CLR 14/09 A3001 RMK AO2 SLP173 T01440089 10183 20133 53010
KLVK - Livermore, California, USA
Distance from station: NNE 31mi, 51km
Updated: Thu, 10/17/19 11:53pm
Clear
Clear
 Wind from calm
Wind: Calm
Temperature: 55°F , 13°C
Dew Point: 46°F , 8°C
Humidity: 72%
Barometer: 30.00 inHg , 1015.9 hPa
Clouds: Clear
Visibility: 10 miles , 16 km
2019/10/18 05:53 KLVK 180553Z AUTO 00000KT 10SM CLR 13/08 A3000 RMK AO2 SLP156 T01280078 10200 20122 53012